Terminal Aerodrome Forecast
Issued by NWS

Current Version | Previous Version | Text Only | Print | Product List | Glossary Off
Versions: 1 2 3 4 5 6 7 8 9 10 11 12 13 14 15 16 17 18 19 20 21 22 23 24 25 26 27 28 29 30 31 32 33 34 35 36 37 38 39 40

000
FTUS41 KRNK 280901 AAC
TAFLWB
TAF AMD
KLWB 280901Z 2809/2906 02003KT 2SM BR SCT001
     FM281100 00000KT 1/4SM FG VV001
     FM281330 02003KT 4SM BR BKN003
     FM281430 VRB03KT P6SM FEW040 SCT250
     FM290000 00000KT P6SM SCT040 BKN250
     FM290300 00000KT P6SM SCT120 OVC250=

USA.gov is the U.S. government's official web portal to all federal, state and local government web resources and services.